Buoy 56916

sailwx.info

Track history (hours):
 
Tides and Currents Weather Stations Pressure Air Temp Water Temp Dewpoint Dewpoint Depression Visibility Wind Speed Wind Dir Waves Ship Positions

Drifting buoy 56916

Last reported at 2016-May-01 11:00 UTC. Time now 2016-May-01 19:23 UTC.
Position S 54°40' E 099°47'.

Barometer 990.4 mb
Water temperature 2.4 ° C

Date/timePositionNaut miles runAvg speedWind from/ knotsBaromVisibWave heightAir tempDewpointWater temp
2016-May-01 11:00S 54°40' E 099°47'1 0.6 990.4 2.4
2016-May-01 10:00S 54°41' E 099°47'1 0.3 990.1 2.4
2016-May-01 07:00S 54°42' E 099°46'3 0.8 987.8 2.5
2016-May-01 03:00S 54°45' E 099°46'0 0.0 982.9 2.5
2016-May-01 02:00S 54°45' E 099°46'0 0.1 980.3 2.5
2016-May-01 01:00S 54°45' E 099°46'3 0.9 977.0 2.4
2016-Apr-30 22:00S 54°47' E 099°45'2 1.0 965.0 2.4
2016-Apr-30 20:00S 54°49' E 099°42'0 0.0 965.1 2.4
2016-Apr-30 19:00S 54°49' E 099°42'2 0.9 966.4 2.4
2016-Apr-30 17:00S 54°49' E 099°39'5 0.9 968.9 2.4
2016-Apr-30 11:00S 54°47' E 099°31'0 0.5 982.2 2.4
2016-Apr-30 10:00S 54°47' E 099°32'1 0.4 987.1 2.4
2016-Apr-30 08:00S 54°47' E 099°31'2 0.3 993.7 2.4
2016-Apr-30 01:00S 54°46' E 099°28'2 0.3 997.1 2.4
2016-Apr-29 17:00S 54°44' E 099°25'0 0.5 986.4 2.4
2016-Apr-29 16:00S 54°44' E 099°25'3 0.6 986.9 2.4
2016-Apr-29 11:00S 54°42' E 099°21'2 0.9 993.6 2.5
2016-Apr-29 09:00S 54°40' E 099°19'4 0.6 997.3 2.4
2016-Apr-29 03:00S 54°37' E 099°18'3 0.4 1009.2 2.4
2016-Apr-28 18:00S 54°34' E 099°21'1 0.4 1009.0 2.4
2016-Apr-28 15:00S 54°33' E 099°23'0 0.4 1005.2 2.4
2016-Apr-28 14:00S 54°33' E 099°24'2 0.6 1003.5 2.4
2016-Apr-28 11:00S 54°32' E 099°26'2 0.8 996.2 2.4
2016-Apr-28 09:00S 54°32' E 099°29'0 0.5 990.6 2.5
2016-Apr-28 08:00S 54°32' E 099°29'3 0.4 988.2 2.5
2016-Apr-28 01:00S 54°33' E 099°34'1 1.0 980.9 2.4
2016-Apr-28 00:00S 54°33' E 099°36'1 0.3 982.5 2.4
2016-Apr-27 21:00S 54°33' E 099°37'2 0.7 987.9 2.3
2016-Apr-27 18:00S 54°34' E 099°41'1 0.7 991.7 2.4
2016-Apr-27 16:00S 54°33' E 099°43'0 0.0 993.3 2.4
2016-Apr-27 15:00S 54°33' E 099°43'2 1.1 994.0 2.4
2016-Apr-27 13:00S 54°34' E 099°47'1 0.6 993.0 2.4
2016-Apr-27 11:00S 54°35' E 099°48'2 1.6 990.5 2.4
2016-Apr-27 10:00S 54°35' E 099°51'1 0.6 989.0 2.4
2016-Apr-27 08:00S 54°37' E 099°52'4 0.6 985.6 2.4
2016-Apr-27 02:00S 54°40' E 099°55'4 0.9 981.2 2.2
2016-Apr-26 21:00S 54°43' E 100°01'0 0.0 981.8 2.3
2016-Apr-26 20:00S 54°43' E 100°01'2 0.8 982.7 2.3
2016-Apr-26 18:00S 54°44' E 100°02'2 1.1 984.0 2.3
2016-Apr-26 16:00S 54°45' E 100°05'3 0.7 985.6 2.3
2016-Apr-26 12:00S 54°47' E 100°03'1 0.3 988.5 2.4
2016-Apr-26 08:00S 54°49' E 100°02'2 0.9 989.9 2.4
2016-Apr-26 06:00S 54°50' E 100°01'1 0.3 991.4 2.4
2016-Apr-26 04:00S 54°50' E 100°00'0 0.1 993.4 2.4
2016-Apr-26 02:00S 54°50' E 100°00'2 0.4 995.6 2.4
2016-Apr-25 21:00S 54°52' E 099°59'0 0.2 998.3 2.4
2016-Apr-25 20:00S 54°52' E 099°59'1 0.3 999.0 2.4
2016-Apr-25 17:00S 54°52' E 099°57'1 0.4 1001.4 2.4
2016-Apr-25 15:00S 54°52' E 099°56'1 0.7 1003.5 2.4
2016-Apr-25 13:00S 54°53' E 099°54'0 0.1 1005.5 2.4
2016-Apr-25 11:00S 54°52' E 099°54'0 0.4 1006.3 2.4
2016-Apr-25 10:00S 54°53' E 099°53'0 0.4 1006.8 2.4
2016-Apr-25 09:00S 54°52' E 099°52'1 0.3 1007.1 2.4
2016-Apr-25 06:00S 54°52' E 099°51'1 0.1 1007.7 2.4
2016-Apr-25 01:00S 54°51' E 099°51'0 0.3 1007.8 2.4
2016-Apr-25 00:00S 54°51' E 099°51'0 0.0 1007.5 2.4
2016-Apr-24 17:00S 54°51' E 099°50'1 0.2 1004.4 2.4
2016-Apr-24 14:00S 54°50' E 099°51'1 0.3 1003.5 2.4
2016-Apr-24 10:00S 54°49' E 099°52'0 0.1 1002.5 2.5
2016-Apr-24 07:00S 54°49' E 099°52'0 0.0 1002.5 2.5
2016-Apr-24 06:00S 54°49' E 099°52'1 0.3 1002.9 2.5
2016-Apr-24 03:00S 54°49' E 099°54'0 0.2 1004.5 2.5
2016-Apr-24 01:00S 54°48' E 099°54'3 0.7 1006.0 2.5
2016-Apr-23 21:00S 54°49' E 099°59'1 0.9 1008.1 2.5
2016-Apr-23 20:00S 54°50' E 099°59'2 0.5 1008.4 2.5
2016-Apr-23 17:00S 54°51' E 100°01'2 0.3 1009.1 2.5
2016-Apr-23 12:00S 54°53' E 100°02'0 0.4 1011.1 2.5
2016-Apr-23 11:00S 54°53' E 100°03'3 0.8 1010.8 2.5
2016-Apr-23 07:00S 54°56' E 100°05'3 0.8 1009.1 2.6
2016-Apr-23 03:00S 54°59' E 100°05'1 1.2 1006.4 2.6
2016-Apr-23 02:00S 54°60' E 100°04'1 0.7 1005.6 2.6
2016-Apr-23 00:00S 55°01' E 100°05'1 1.1 1003.6 2.6
2016-Apr-22 23:00S 55°02' E 100°04'4 0.8 1002.4 2.6
2016-Apr-22 18:00S 55°06' E 099°60'1 1.4 995.1 2.6
2016-Apr-22 17:00S 55°07' E 099°60'1 0.9 993.8 2.6
2016-Apr-22 16:00S 55°07' E 099°58'2 1.2 992.9 2.6
2016-Apr-22 14:00S 55°09' E 099°56'3 0.9 991.1 2.6
2016-Apr-22 11:00S 55°11' E 099°52'4 0.9 989.1 2.6
2016-Apr-22 07:00S 55°13' E 099°46'5 1.0 984.7 2.6
2016-Apr-22 02:00S 55°16' E 099°40'1 1.3 979.9 2.6
2016-Apr-22 01:00S 55°18' E 099°39'1 1.3 978.1 2.6
2016-Apr-22 00:00S 55°19' E 099°38'5 1.6 976.6 2.6
2016-Apr-21 21:00S 55°22' E 099°32'0 0.0 976.0 2.6
2016-Apr-21 20:00S 55°22' E 099°32'1 1.3 978.1 2.4
2016-Apr-21 19:00S 55°22' E 099°29'3 1.5 980.0 2.6
2016-Apr-21 17:00S 55°23' E 099°25'2 0.7 983.7 2.7
2016-Apr-21 14:00S 55°23' E 099°21'2 0.6 987.6 2.7
2016-Apr-21 11:00S 55°24' E 099°18'   990.4 2.7
Track history (hours):
 
Tides and Currents Weather Stations Pressure Air Temp Water Temp Dewpoint Dewpoint Depression Visibility Wind Speed Wind Dir Waves Ship Positions

Drifting buoy 56916

Last reported at 2016-May-01 11:00 UTC. Time now 2016-May-01 19:23 UTC.
Position S 54°40' E 099°47'.

Barometer 990.4 mb
Water temperature 2.4 ° C

Date/timePositionNaut miles runAvg speedWind from/ knotsBaromVisibWave heightAir tempDewpointWater temp
2016-May-01 11:00S 54°40' E 099°47'1 0.6 990.4 2.4
2016-May-01 10:00S 54°41' E 099°47'1 0.3 990.1 2.4
2016-May-01 07:00S 54°42' E 099°46'3 0.8 987.8 2.5
2016-May-01 03:00S 54°45' E 099°46'0 0.0 982.9 2.5
2016-May-01 02:00S 54°45' E 099°46'0 0.1 980.3 2.5
2016-May-01 01:00S 54°45' E 099°46'3 0.9 977.0 2.4
2016-Apr-30 22:00S 54°47' E 099°45'2 1.0 965.0 2.4
2016-Apr-30 20:00S 54°49' E 099°42'0 0.0 965.1 2.4
2016-Apr-30 19:00S 54°49' E 099°42'2 0.9 966.4 2.4
2016-Apr-30 17:00S 54°49' E 099°39'5 0.9 968.9 2.4
2016-Apr-30 11:00S 54°47' E 099°31'0 0.5 982.2 2.4
2016-Apr-30 10:00S 54°47' E 099°32'1 0.4 987.1 2.4
2016-Apr-30 08:00S 54°47' E 099°31'2 0.3 993.7 2.4
2016-Apr-30 01:00S 54°46' E 099°28'2 0.3 997.1 2.4
2016-Apr-29 17:00S 54°44' E 099°25'0 0.5 986.4 2.4
2016-Apr-29 16:00S 54°44' E 099°25'3 0.6 986.9 2.4
2016-Apr-29 11:00S 54°42' E 099°21'2 0.9 993.6 2.5
2016-Apr-29 09:00S 54°40' E 099°19'4 0.6 997.3 2.4
2016-Apr-29 03:00S 54°37' E 099°18'3 0.4 1009.2 2.4
2016-Apr-28 18:00S 54°34' E 099°21'1 0.4 1009.0 2.4
2016-Apr-28 15:00S 54°33' E 099°23'0 0.4 1005.2 2.4
2016-Apr-28 14:00S 54°33' E 099°24'2 0.6 1003.5 2.4
2016-Apr-28 11:00S 54°32' E 099°26'2 0.8 996.2 2.4
2016-Apr-28 09:00S 54°32' E 099°29'0 0.5 990.6 2.5
2016-Apr-28 08:00S 54°32' E 099°29'3 0.4 988.2 2.5
2016-Apr-28 01:00S 54°33' E 099°34'1 1.0 980.9 2.4
2016-Apr-28 00:00S 54°33' E 099°36'1 0.3 982.5 2.4
2016-Apr-27 21:00S 54°33' E 099°37'2 0.7 987.9 2.3
2016-Apr-27 18:00S 54°34' E 099°41'1 0.7 991.7 2.4
2016-Apr-27 16:00S 54°33' E 099°43'0 0.0 993.3 2.4
2016-Apr-27 15:00S 54°33' E 099°43'2 1.1 994.0 2.4
2016-Apr-27 13:00S 54°34' E 099°47'1 0.6 993.0 2.4
2016-Apr-27 11:00S 54°35' E 099°48'2 1.6 990.5 2.4
2016-Apr-27 10:00S 54°35' E 099°51'1 0.6 989.0 2.4
2016-Apr-27 08:00S 54°37' E 099°52'4 0.6 985.6 2.4
2016-Apr-27 02:00S 54°40' E 099°55'4 0.9 981.2 2.2
2016-Apr-26 21:00S 54°43' E 100°01'0 0.0 981.8 2.3
2016-Apr-26 20:00S 54°43' E 100°01'2 0.8 982.7 2.3
2016-Apr-26 18:00S 54°44' E 100°02'2 1.1 984.0 2.3
2016-Apr-26 16:00S 54°45' E 100°05'3 0.7 985.6 2.3
2016-Apr-26 12:00S 54°47' E 100°03'1 0.3 988.5 2.4
2016-Apr-26 08:00S 54°49' E 100°02'2 0.9 989.9 2.4
2016-Apr-26 06:00S 54°50' E 100°01'1 0.3 991.4 2.4
2016-Apr-26 04:00S 54°50' E 100°00'0 0.1 993.4 2.4
2016-Apr-26 02:00S 54°50' E 100°00'2 0.4 995.6 2.4
2016-Apr-25 21:00S 54°52' E 099°59'0 0.2 998.3 2.4
2016-Apr-25 20:00S 54°52' E 099°59'1 0.3 999.0 2.4
2016-Apr-25 17:00S 54°52' E 099°57'1 0.4 1001.4 2.4
2016-Apr-25 15:00S 54°52' E 099°56'1 0.7 1003.5 2.4
2016-Apr-25 13:00S 54°53' E 099°54'0 0.1 1005.5 2.4
2016-Apr-25 11:00S 54°52' E 099°54'0 0.4 1006.3 2.4
2016-Apr-25 10:00S 54°53' E 099°53'0 0.4 1006.8 2.4
2016-Apr-25 09:00S 54°52' E 099°52'1 0.3 1007.1 2.4
2016-Apr-25 06:00S 54°52' E 099°51'1 0.1 1007.7 2.4
2016-Apr-25 01:00S 54°51' E 099°51'0 0.3 1007.8 2.4
2016-Apr-25 00:00S 54°51' E 099°51'0 0.0 1007.5 2.4
2016-Apr-24 17:00S 54°51' E 099°50'1 0.2 1004.4 2.4
2016-Apr-24 14:00S 54°50' E 099°51'1 0.3 1003.5 2.4
2016-Apr-24 10:00S 54°49' E 099°52'0 0.1 1002.5 2.5
2016-Apr-24 07:00S 54°49' E 099°52'0 0.0 1002.5 2.5
2016-Apr-24 06:00S 54°49' E 099°52'1 0.3 1002.9 2.5
2016-Apr-24 03:00S 54°49' E 099°54'0 0.2 1004.5 2.5
2016-Apr-24 01:00S 54°48' E 099°54'3 0.7 1006.0 2.5
2016-Apr-23 21:00S 54°49' E 099°59'1 0.9 1008.1 2.5
2016-Apr-23 20:00S 54°50' E 099°59'2 0.5 1008.4 2.5
2016-Apr-23 17:00S 54°51' E 100°01'2 0.3 1009.1 2.5
2016-Apr-23 12:00S 54°53' E 100°02'0 0.4 1011.1 2.5
2016-Apr-23 11:00S 54°53' E 100°03'3 0.8 1010.8 2.5
2016-Apr-23 07:00S 54°56' E 100°05'3 0.8 1009.1 2.6
2016-Apr-23 03:00S 54°59' E 100°05'1 1.2 1006.4 2.6
2016-Apr-23 02:00S 54°60' E 100°04'1 0.7 1005.6 2.6
2016-Apr-23 00:00S 55°01' E 100°05'1 1.1 1003.6 2.6
2016-Apr-22 23:00S 55°02' E 100°04'4 0.8 1002.4 2.6
2016-Apr-22 18:00S 55°06' E 099°60'1 1.4 995.1 2.6
2016-Apr-22 17:00S 55°07' E 099°60'1 0.9 993.8 2.6
2016-Apr-22 16:00S 55°07' E 099°58'2 1.2 992.9 2.6
2016-Apr-22 14:00S 55°09' E 099°56'3 0.9 991.1 2.6
2016-Apr-22 11:00S 55°11' E 099°52'4 0.9 989.1 2.6
2016-Apr-22 07:00S 55°13' E 099°46'5 1.0 984.7 2.6
2016-Apr-22 02:00S 55°16' E 099°40'1 1.3 979.9 2.6
2016-Apr-22 01:00S 55°18' E 099°39'1 1.3 978.1 2.6
2016-Apr-22 00:00S 55°19' E 099°38'5 1.6 976.6 2.6
2016-Apr-21 21:00S 55°22' E 099°32'0 0.0 976.0 2.6
2016-Apr-21 20:00S 55°22' E 099°32'1 1.3 978.1 2.4
2016-Apr-21 19:00S 55°22' E 099°29'3 1.5 980.0 2.6
2016-Apr-21 17:00S 55°23' E 099°25'2 0.7 983.7 2.7
2016-Apr-21 14:00S 55°23' E 099°21'2 0.6 987.6 2.7
2016-Apr-21 11:00S 55°24' E 099°18'   990.4 2.7

Dump ship's entire track history